Time;durP1;ratioP1;P1;durP2;ratioP2;P2;SDS_P1;SDS_P2;PMS_P1;PMS_P2;Temp;Humidity;BMP_temperature;BMP_pressure;BME280_temperature;BME280_humidity;BME280_pressure;Samples;Min_cycle;Max_cycle;Signal;HPM_P1;HPM_P2
2022/09/03 00:01:49;;;;;;;2.55;0.88;;;16.00;68.60;;;;;;5062994;28;20039;-46
2022/09/03 00:04:50;;;;;;;6.25;1.15;;;16.00;68.30;;;;;;5054264;28;20035;-46
2022/09/03 00:07:27;;;;;;;2.20;1.02;;;16.00;68.50;;;;;;5059162;28;20044;-47
2022/09/03 00:10:01;;;;;;;2.28;1.00;;;16.00;67.80;;;;;;5054160;28;20335;-46
2022/09/03 00:12:32;;;;;;;1.63;0.98;;;16.10;67.70;;;;;;5058102;28;20025;-46
2022/09/03 00:15:21;;;;;;;2.60;1.08;;;16.00;67.60;;;;;;5059021;28;20339;-49
2022/09/03 00:17:56;;;;;;;3.17;1.38;;;16.00;68.00;;;;;;5041328;28;20040;-46
2022/09/03 00:20:49;;;;;;;5.15;1.20;;;16.00;68.00;;;;;;5048564;28;20029;-47
2022/09/03 00:23:21;;;;;;;6.47;1.50;;;15.90;67.60;;;;;;5047212;28;20044;-49
2022/09/03 00:26:00;;;;;;;3.58;1.27;;;15.90;67.60;;;;;;5061367;28;20035;-46
2022/09/03 00:28:44;;;;;;;3.25;1.30;;;15.90;67.60;;;;;;5068864;28;20021;-48
2022/09/03 00:31:29;;;;;;;4.57;1.10;;;15.90;67.50;;;;;;5059286;28;20098;-47
2022/09/03 00:33:59;;;;;;;3.78;1.35;;;15.90;67.50;;;;;;5051602;28;20102;-46
2022/09/03 00:36:34;;;;;;;3.58;1.30;;;15.90;67.10;;;;;;5051844;28;20033;-46
2022/09/03 00:39:00;;;;;;;4.70;1.33;;;15.90;66.90;;;;;;5052586;28;20021;-48
2022/09/03 00:41:40;;;;;;;2.15;1.17;;;15.90;67.00;;;;;;5066774;28;20035;-46
2022/09/03 00:44:14;;;;;;;2.72;1.40;;;15.90;67.10;;;;;;5062095;28;20457;-46
2022/09/03 00:47:03;;;;;;;1.92;0.93;;;15.90;67.10;;;;;;5066337;28;20035;-46
2022/09/03 00:50:08;;;;;;;3.20;1.10;;;15.90;67.10;;;;;;5070571;28;20075;-46
2022/09/03 00:52:49;;;;;;;2.67;1.00;;;15.80;67.00;;;;;;5069130;28;20021;-50
2022/09/03 00:55:17;;;;;;;3.30;1.30;;;15.80;67.30;;;;;;5056636;28;20032;-46
2022/09/03 00:58:05;;;;;;;3.30;1.20;;;15.80;67.10;;;;;;5033835;28;20017;-47
2022/09/03 01:00:31;;;;;;;3.90;1.10;;;15.70;67.10;;;;;;5051567;28;20048;-46
2022/09/03 01:03:08;;;;;;;4.25;1.10;;;15.80;67.00;;;;;;5053530;28;20028;-48
2022/09/03 01:06:06;;;;;;;3.22;1.35;;;15.70;67.30;;;;;;5053002;28;20033;-49
2022/09/03 01:08:58;;;;;;;3.13;1.20;;;15.70;67.50;;;;;;5056589;28;20028;-46
2022/09/03 01:11:44;;;;;;;2.65;1.00;;;15.70;67.40;;;;;;5068950;28;20350;-46
2022/09/03 01:14:28;;;;;;;2.42;1.30;;;15.80;67.50;;;;;;5062273;28;20032;-46
2022/09/03 01:17:19;;;;;;;4.53;1.58;;;15.80;67.60;;;;;;5060883;28;20036;-47
2022/09/03 01:20:19;;;;;;;2.60;1.17;;;15.80;67.70;;;;;;5062236;28;20064;-46
2022/09/03 01:23:10;;;;;;;2.25;1.00;;;15.80;68.50;;;;;;5065064;28;20036;-46
2022/09/03 01:26:10;;;;;;;2.35;1.10;;;15.60;69.70;;;;;;5050873;28;20037;-46
2022/09/03 01:29:11;;;;;;;3.92;1.70;;;15.60;69.30;;;;;;5040280;28;20028;-46
2022/09/03 01:31:58;;;;;;;2.45;1.13;;;15.60;69.40;;;;;;5012724;28;20048;-46
2022/09/03 01:34:49;;;;;;;2.65;1.55;;;15.60;69.50;;;;;;5064094;28;20039;-47
2022/09/03 01:37:41;;;;;;;3.72;1.33;;;15.60;69.70;;;;;;5065482;28;20035;-46
2022/09/03 01:40:35;;;;;;;3.13;1.25;;;15.50;69.30;;;;;;5056327;28;20047;-47
2022/09/03 01:43:31;;;;;;;3.25;1.15;;;15.50;69.30;;;;;;5044363;28;20107;-46
2022/09/03 01:46:18;;;;;;;6.05;1.30;;;15.40;69.40;;;;;;5067765;28;20303;-46
2022/09/03 01:48:59;;;;;;;1.83;1.02;;;15.40;69.50;;;;;;5065381;28;20083;-46
2022/09/03 01:51:29;;;;;;;4.72;1.42;;;15.50;69.50;;;;;;5065485;28;20606;-47
2022/09/03 01:54:33;;;;;;;4.45;1.10;;;15.50;69.40;;;;;;5050294;28;20030;-46
2022/09/03 01:57:41;;;;;;;2.33;1.10;;;15.40;69.80;;;;;;5064719;28;20480;-48
2022/09/03 02:00:18;;;;;;;6.95;1.60;;;15.40;69.70;;;;;;4989613;28;20038;-46
2022/09/03 02:02:46;;;;;;;2.50;1.13;;;15.40;70.10;;;;;;5001609;28;20034;-49
2022/09/03 02:05:24;;;;;;;4.95;1.25;;;15.40;69.90;;;;;;4971563;28;20074;-46
2022/09/03 02:07:59;;;;;;;2.97;1.00;;;15.40;70.10;;;;;;4966874;28;20479;-46
2022/09/03 02:10:39;;;;;;;2.50;1.10;;;15.40;69.70;;;;;;4973107;28;20432;-46
2022/09/03 02:13:09;;;;;;;4.35;1.20;;;15.30;69.90;;;;;;4986355;28;20243;-46
2022/09/03 02:15:39;;;;;;;3.47;1.30;;;15.30;69.60;;;;;;4983130;28;20116;-47
2022/09/03 02:18:12;;;;;;;3.13;1.70;;;15.30;69.10;;;;;;4975609;28;20133;-47
2022/09/03 02:20:38;;;;;;;1.77;1.08;;;15.30;69.10;;;;;;4986504;28;20553;-46
2022/09/03 02:23:04;;;;;;;9.63;1.85;;;15.30;69.10;;;;;;4972213;28;20493;-46
2022/09/03 02:25:38;;;;;;;3.90;1.15;;;15.30;69.00;;;;;;4971335;28;20074;-48
2022/09/03 02:28:06;;;;;;;3.08;1.58;;;15.20;69.10;;;;;;4977116;28;20045;-46
2022/09/03 02:30:32;;;;;;;2.45;1.25;;;15.20;69.30;;;;;;5028544;28;20032;-46
2022/09/03 02:32:58;;;;;;;3.03;1.40;;;15.20;69.30;;;;;;5063191;28;20033;-46
2022/09/03 02:35:24;;;;;;;2.28;1.10;;;15.10;69.10;;;;;;5065343;28;20025;-46
2022/09/03 02:37:50;;;;;;;3.38;1.40;;;15.20;69.30;;;;;;5066235;28;20424;-48
2022/09/03 02:40:16;;;;;;;3.13;1.30;;;15.20;69.30;;;;;;5049903;28;20044;-46
2022/09/03 02:42:42;;;;;;;2.47;0.98;;;15.10;69.20;;;;;;5064229;28;20043;-46
2022/09/03 02:45:08;;;;;;;2.72;1.13;;;15.00;69.30;;;;;;5048738;28;20055;-50
2022/09/03 02:47:36;;;;;;;2.70;1.33;;;15.00;69.10;;;;;;5058219;28;20354;-46
2022/09/03 02:50:02;;;;;;;3.92;1.35;;;15.00;69.40;;;;;;5062886;28;20048;-47
2022/09/03 02:52:27;;;;;;;3.25;1.15;;;15.00;68.90;;;;;;5050815;28;20045;-46
2022/09/03 02:54:53;;;;;;;5.20;2.00;;;15.00;69.00;;;;;;5049235;28;20113;-46
2022/09/03 02:57:19;;;;;;;2.72;1.20;;;15.00;68.90;;;;;;5051220;28;20456;-48
2022/09/03 02:59:45;;;;;;;4.03;1.33;;;15.00;69.10;;;;;;5058145;28;20043;-47
2022/09/03 03:02:12;;;;;;;3.15;1.55;;;14.90;69.20;;;;;;5049272;28;20032;-47
2022/09/03 03:04:37;;;;;;;1.88;1.10;;;14.90;69.20;;;;;;5066890;28;20029;-46
2022/09/03 03:07:04;;;;;;;2.45;1.23;;;14.90;69.20;;;;;;5063980;28;20457;-46
2022/09/03 03:09:30;;;;;;;2.83;1.33;;;14.90;69.20;;;;;;5066230;28;20046;-48
2022/09/03 03:11:56;;;;;;;2.53;1.48;;;14.80;69.20;;;;;;5060571;28;20025;-47
2022/09/03 03:14:21;;;;;;;4.22;1.30;;;14.80;69.20;;;;;;5066725;28;20063;-47
2022/09/03 03:16:48;;;;;;;3.45;1.10;;;14.80;69.70;;;;;;5041051;28;20037;-47
2022/09/03 03:19:14;;;;;;;3.15;1.30;;;14.80;69.90;;;;;;5048981;28;20052;-46
2022/09/03 03:21:39;;;;;;;2.50;1.23;;;14.80;69.80;;;;;;5056686;28;20020;-48
2022/09/03 03:24:06;;;;;;;3.30;1.27;;;14.80;69.90;;;;;;5044878;28;20032;-47
2022/09/03 03:26:31;;;;;;;2.42;1.30;;;14.80;70.10;;;;;;5066065;28;20039;-46
2022/09/03 03:28:59;;;;;;;2.33;0.90;;;14.70;70.20;;;;;;5064417;28;20029;-46
2022/09/03 03:31:26;;;;;;;2.22;1.23;;;14.70;70.10;;;;;;5067102;28;20033;-46
2022/09/03 03:33:56;;;;;;;4.15;1.88;;;14.70;70.40;;;;;;5047533;28;20730;-47
2022/09/03 03:36:24;;;;;;;2.67;1.38;;;14.60;70.60;;;;;;5045673;28;20535;-50
2022/09/03 03:38:53;;;;;;;2.53;1.13;;;14.70;70.50;;;;;;5048964;28;20029;-50
2022/09/03 03:41:22;;;;;;;2.63;1.27;;;14.60;70.60;;;;;;5051168;28;20033;-46
2022/09/03 03:43:56;;;;;;;2.63;1.15;;;14.70;70.60;;;;;;5056966;28;20032;-47
2022/09/03 03:46:23;;;;;;;3.05;1.08;;;14.60;70.90;;;;;;5064450;28;20200;-47
2022/09/03 03:48:50;;;;;;;1.40;0.98;;;14.60;70.60;;;;;;5053094;28;20120;-46
2022/09/03 03:51:16;;;;;;;3.15;1.50;;;14.60;70.80;;;;;;5053258;28;20358;-46
2022/09/03 03:53:42;;;;;;;2.55;1.13;;;14.60;71.00;;;;;;5042692;28;20029;-46
2022/09/03 03:56:11;;;;;;;5.63;2.22;;;14.50;71.00;;;;;;5056266;28;20036;-48
2022/09/03 03:58:41;;;;;;;4.22;1.48;;;14.50;70.90;;;;;;5062525;28;20038;-47
2022/09/03 04:01:13;;;;;;;2.35;1.00;;;14.50;70.80;;;;;;5057748;28;20035;-48
2022/09/03 04:03:40;;;;;;;4.38;1.42;;;14.50;71.00;;;;;;5061113;28;20038;-48
2022/09/03 04:06:06;;;;;;;3.92;1.15;;;14.40;71.20;;;;;;5070684;28;20040;-46
2022/09/03 04:08:37;;;;;;;4.50;1.80;;;14.40;71.20;;;;;;5063545;28;20087;-48
2022/09/03 04:11:05;;;;;;;2.22;1.10;;;14.40;71.40;;;;;;5071075;28;20052;-47
2022/09/03 04:13:36;;;;;;;2.45;1.10;;;14.40;71.30;;;;;;5067410;28;20401;-47
2022/09/03 04:16:08;;;;;;;3.22;1.15;;;14.40;71.40;;;;;;5065140;28;20021;-47
2022/09/03 04:18:35;;;;;;;2.88;1.38;;;14.40;71.50;;;;;;5060688;28;20096;-47
2022/09/03 04:21:10;;;;;;;5.65;1.30;;;14.40;71.40;;;;;;5039394;28;20120;-51
2022/09/03 04:23:42;;;;;;;3.08;1.52;;;14.30;71.20;;;;;;5059945;28;20066;-47
2022/09/03 04:26:11;;;;;;;2.50;1.35;;;14.40;71.20;;;;;;5052450;28;20029;-49
2022/09/03 04:28:37;;;;;;;7.45;1.67;;;14.30;71.40;;;;;;5050764;28;20082;-48
2022/09/03 04:31:05;;;;;;;2.55;1.30;;;14.30;71.70;;;;;;5062433;28;20025;-47
2022/09/03 04:33:32;;;;;;;4.82;1.13;;;14.30;71.50;;;;;;5052267;28;20036;-47
2022/09/03 04:36:30;;;;;;;3.95;1.65;;;14.30;71.70;;;;;;5066547;28;20033;-46
2022/09/03 04:38:59;;;;;;;2.03;0.90;;;14.30;71.70;;;;;;5052048;28;20073;-51
2022/09/03 04:41:27;;;;;;;3.50;1.50;;;14.30;71.80;;;;;;5053028;28;20503;-47
2022/09/03 04:43:55;;;;;;;3.13;1.20;;;14.30;71.40;;;;;;5053341;28;20044;-47
2022/09/03 04:46:25;;;;;;;2.22;1.20;;;14.30;71.60;;;;;;5060695;28;20103;-46
2022/09/03 04:48:52;;;;;;;;;;;14.30;71.50;;;;;;5070137;28;20072;-49
2022/09/03 04:51:22;;;;;;;6.30;1.48;;;14.30;71.40;;;;;;5062473;28;19923;-46
2022/09/03 04:53:58;;;;;;;4.25;1.80;;;14.40;71.30;;;;;;5060561;28;20043;-50
2022/09/03 04:56:28;;;;;;;2.53;1.25;;;14.40;71.30;;;;;;5073031;28;20032;-46
2022/09/03 04:59:07;;;;;;;2.13;1.10;;;14.40;71.40;;;;;;5072477;28;20175;-46
2022/09/03 05:01:35;;;;;;;6.03;1.15;;;14.40;71.10;;;;;;5051528;28;20036;-46
2022/09/03 05:04:01;;;;;;;2.75;1.05;;;14.40;71.50;;;;;;5051070;28;20028;-46
2022/09/03 05:06:29;;;;;;;7.22;1.60;;;14.40;71.20;;;;;;5064903;28;20048;-46
2022/09/03 05:08:56;;;;;;;2.15;1.38;;;14.40;71.00;;;;;;5032590;28;20029;-46
2022/09/03 05:11:24;;;;;;;2.33;1.20;;;14.40;70.90;;;;;;5061288;28;20033;-48
2022/09/03 05:13:52;;;;;;;6.40;1.27;;;14.50;70.90;;;;;;5060039;28;20328;-46
2022/09/03 05:16:19;;;;;;;2.60;1.08;;;14.50;70.90;;;;;;5069413;28;20040;-48
2022/09/03 05:18:46;;;;;;;4.25;1.55;;;14.50;70.90;;;;;;5065963;28;20124;-46
2022/09/03 05:21:14;;;;;;;4.85;1.60;;;14.60;70.90;;;;;;5069012;28;20426;-47
2022/09/03 05:23:42;;;;;;;4.40;1.25;;;14.50;71.20;;;;;;5060362;28;20033;-47
2022/09/03 05:26:15;;;;;;;2.85;1.30;;;14.60;70.80;;;;;;5068072;28;20408;-47
2022/09/03 05:28:42;;;;;;;2.65;1.27;;;14.60;70.90;;;;;;5067137;28;20453;-47
2022/09/03 05:31:13;;;;;;;2.35;1.25;;;14.60;71.00;;;;;;5052667;28;20136;-45
2022/09/03 05:33:42;;;;;;;3.72;1.33;;;14.60;70.70;;;;;;5052749;28;20058;-45
2022/09/03 05:36:13;;;;;;;2.90;1.55;;;14.70;70.80;;;;;;5051847;28;20032;-46
2022/09/03 05:38:39;;;;;;;2.90;1.20;;;14.70;70.70;;;;;;5059866;28;20039;-46
2022/09/03 05:41:08;;;;;;;3.08;1.10;;;14.70;70.60;;;;;;5052311;28;20043;-47
2022/09/03 05:43:34;;;;;;;1.50;0.82;;;14.70;70.40;;;;;;5056160;28;20040;-46
2022/09/03 05:46:02;;;;;;;4.90;1.60;;;14.80;70.40;;;;;;5066151;28;20401;-49
2022/09/03 05:48:32;;;;;;;3.95;1.20;;;14.80;70.30;;;;;;5059192;28;20060;-47
2022/09/03 05:51:06;;;;;;;2.90;1.40;;;14.90;70.60;;;;;;5054705;28;20033;-46
2022/09/03 05:53:35;;;;;;;3.13;1.90;;;14.90;70.70;;;;;;5054772;28;20033;-48
2022/09/03 05:56:04;;;;;;;4.35;1.33;;;14.90;71.10;;;;;;5064536;28;20028;-47
2022/09/03 05:58:35;;;;;;;2.15;1.00;;;15.00;71.40;;;;;;5057629;28;20029;-50
2022/09/03 06:01:16;;;;;;;3.08;1.13;;;15.00;71.50;;;;;;5057245;28;20323;-50
2022/09/03 06:03:43;;;;;;;5.40;1.63;;;15.00;71.70;;;;;;5060626;28;20040;-48
2022/09/03 06:06:09;;;;;;;3.30;1.45;;;15.10;71.10;;;;;;5058453;28;20093;-49
2022/09/03 06:08:40;;;;;;;2.30;1.30;;;15.10;71.20;;;;;;5043478;28;20029;-48
2022/09/03 06:11:06;;;;;;;5.13;1.25;;;15.10;71.40;;;;;;5069407;28;20024;-51
2022/09/03 06:13:33;;;;;;;4.22;1.20;;;15.20;71.50;;;;;;5064610;28;20036;-47
2022/09/03 06:16:12;;;;;;;2.42;1.02;;;15.20;71.00;;;;;;5058476;28;20067;-46
2022/09/03 06:18:39;;;;;;;2.60;1.38;;;15.20;71.20;;;;;;5055060;28;20037;-46
2022/09/03 06:21:07;;;;;;;3.22;1.40;;;15.20;71.00;;;;;;5058882;28;20378;-46
2022/09/03 06:23:34;;;;;;;3.22;1.10;;;15.30;70.90;;;;;;5064833;28;20029;-45
2022/09/03 06:26:09;;;;;;;2.10;1.13;;;15.40;70.70;;;;;;5059965;28;20032;-48
2022/09/03 06:28:37;;;;;;;2.90;0.80;;;15.40;70.70;;;;;;5060199;28;20035;-46
2022/09/03 06:31:05;;;;;;;2.60;1.10;;;15.40;70.50;;;;;;5060387;28;20040;-46
2022/09/03 06:33:33;;;;;;;1.98;0.90;;;15.50;70.70;;;;;;5062891;28;20017;-46
2022/09/03 06:36:00;;;;;;;2.88;1.42;;;15.50;70.60;;;;;;5068000;28;20032;-46
2022/09/03 06:38:28;;;;;;;4.75;1.65;;;15.50;70.70;;;;;;5067431;28;20039;-45
2022/09/03 06:40:56;;;;;;;4.78;1.27;;;15.60;70.70;;;;;;5066631;28;20671;-47
2022/09/03 06:43:23;;;;;;;4.15;1.73;;;15.60;70.70;;;;;;5064317;28;20029;-46
2022/09/03 06:46:10;;;;;;;2.58;1.08;;;15.70;70.40;;;;;;5064321;28;20399;-46
2022/09/03 06:48:38;;;;;;;3.60;1.10;;;15.70;70.30;;;;;;5050726;28;20057;-46
2022/09/03 06:51:11;;;;;;;3.38;1.08;;;15.80;69.90;;;;;;5035068;28;20052;-47
2022/09/03 06:53:43;;;;;;;2.92;1.23;;;15.90;69.90;;;;;;5047472;28;20357;-47
2022/09/03 06:56:17;;;;;;;3.40;1.38;;;15.90;70.00;;;;;;5061097;28;20029;-46
2022/09/03 06:58:46;;;;;;;2.30;1.05;;;16.00;69.60;;;;;;5046678;28;20037;-46
2022/09/03 07:01:18;;;;;;;4.68;1.33;;;16.10;69.20;;;;;;5043914;28;20580;-47
2022/09/03 07:03:46;;;;;;;6.70;1.60;;;16.10;68.70;;;;;;5044095;28;20051;-46
2022/09/03 07:06:18;;;;;;;5.90;1.25;;;16.20;68.30;;;;;;5045603;28;20079;-47
2022/09/03 07:08:45;;;;;;;5.38;1.58;;;16.20;68.90;;;;;;5042315;28;20503;-47
2022/09/03 07:11:16;;;;;;;3.28;1.27;;;16.20;68.60;;;;;;5038216;28;20037;-47
2022/09/03 07:13:47;;;;;;;11.52;1.90;;;16.30;68.40;;;;;;5041180;28;20021;-46
2022/09/03 07:16:19;;;;;;;2.25;0.95;;;16.30;68.50;;;;;;5046333;28;20051;-47
2022/09/03 07:18:45;;;;;;;3.30;1.33;;;16.40;68.50;;;;;;5038382;28;20471;-52
2022/09/03 07:21:32;;;;;;;6.20;1.52;;;16.50;68.40;;;;;;5039034;28;20454;-48
2022/09/03 07:23:59;;;;;;;3.88;2.03;;;16.60;68.00;;;;;;5030227;28;20029;-49
2022/09/03 07:26:25;;;;;;;2.63;1.05;;;16.60;67.80;;;;;;5036274;28;20087;-47
2022/09/03 07:28:53;;;;;;;2.97;1.00;;;16.60;67.60;;;;;;5042474;28;20550;-46
2022/09/03 07:31:24;;;;;;;4.90;1.30;;;16.70;67.90;;;;;;5045823;28;20067;-46
2022/09/03 07:33:54;;;;;;;2.70;1.05;;;16.70;68.00;;;;;;5031977;28;20092;-47
2022/09/03 07:36:20;;;;;;;;;;;16.60;67.30;;;;;;5027190;28;20030;-47
2022/09/03 07:38:46;;;;;;;5.22;1.08;;;16.60;67.70;;;;;;5038640;28;19916;-48
2022/09/03 07:41:13;;;;;;;3.60;1.30;;;16.80;67.10;;;;;;5029687;28;20462;-47
2022/09/03 07:43:47;;;;;;;5.80;1.45;;;17.10;66.40;;;;;;5038780;28;20065;-47
2022/09/03 07:46:24;;;;;;;3.35;1.20;;;17.30;65.50;;;;;;5035090;28;20061;-47
2022/09/03 07:48:54;;;;;;;5.15;1.05;;;17.50;65.60;;;;;;5049308;28;20120;-47
2022/09/03 07:51:25;;;;;;;3.45;1.48;;;17.80;64.80;;;;;;5041318;28;20033;-51
2022/09/03 07:53:54;;;;;;;2.38;1.13;;;18.00;64.60;;;;;;5037834;28;20383;-47
2022/09/03 07:56:20;;;;;;;5.88;1.67;;;18.00;64.30;;;;;;5016860;28;20497;-47
2022/09/03 07:58:46;;;;;;;3.67;1.17;;;18.30;63.40;;;;;;5012989;28;20037;-46
2022/09/03 08:01:15;;;;;;;3.35;1.48;;;18.50;63.20;;;;;;5017641;28;20026;-47
2022/09/03 08:03:49;;;;;;;4.60;1.00;;;18.80;62.40;;;;;;5012158;28;20029;-46
2022/09/03 08:06:16;;;;;;;3.08;1.20;;;19.30;60.90;;;;;;5020741;28;20480;-48
2022/09/03 08:08:44;;;;;;;2.20;1.13;;;19.30;60.80;;;;;;5030988;28;20075;-46
2022/09/03 08:11:20;;;;;;;3.80;0.93;;;19.40;60.20;;;;;;5029753;28;20215;-46
2022/09/03 08:13:47;;;;;;;3.15;1.80;;;19.70;60.20;;;;;;5018030;28;20434;-47
2022/09/03 08:16:15;;;;;;;3.45;1.40;;;20.00;59.60;;;;;;5023620;28;20104;-46
2022/09/03 08:18:41;;;;;;;6.40;1.23;;;20.20;58.40;;;;;;5025611;28;20024;-47
2022/09/03 08:21:17;;;;;;;3.33;1.33;;;20.50;57.20;;;;;;5020954;28;20021;-49
2022/09/03 08:23:44;;;;;;;3.65;1.33;;;20.60;56.40;;;;;;5038233;28;20049;-47
2022/09/03 08:26:11;;;;;;;3.63;1.50;;;20.60;56.20;;;;;;5045083;28;20039;-47
2022/09/03 08:28:37;;;;;;;4.88;1.50;;;20.60;56.70;;;;;;5035489;28;20474;-50
2022/09/03 08:31:31;;;;;;;4.20;1.35;;;20.70;56.60;;;;;;5029292;28;20036;-50
2022/09/03 08:33:58;;;;;;;3.92;1.63;;;20.90;56.00;;;;;;5011749;28;20057;-49
2022/09/03 08:36:43;;;;;;;3.47;1.10;;;21.10;56.40;;;;;;5019525;28;20036;-47
2022/09/03 08:39:11;;;;;;;5.22;1.33;;;21.10;55.20;;;;;;5013476;28;20152;-49
2022/09/03 08:41:52;;;;;;;2.92;1.42;;;21.10;56.60;;;;;;5028241;28;20328;-47
2022/09/03 08:44:35;;;;;;;4.25;1.33;;;21.40;56.00;;;;;;5012753;28;20491;-47
2022/09/03 08:47:17;;;;;;;5.53;1.40;;;21.50;56.40;;;;;;5031039;28;20510;-47
2022/09/03 08:49:57;;;;;;;4.43;1.60;;;21.50;57.00;;;;;;5030180;28;20026;-47
2022/09/03 08:52:25;;;;;;;3.30;1.00;;;21.70;55.80;;;;;;5035597;28;20048;-52
2022/09/03 08:54:57;;;;;;;3.10;1.10;;;21.90;55.80;;;;;;5030179;28;20422;-48
2022/09/03 08:57:24;;;;;;;4.13;1.23;;;22.10;54.30;;;;;;5031990;28;20030;-50
2022/09/03 08:59:55;;;;;;;2.88;1.33;;;22.20;54.90;;;;;;5030610;28;20029;-47
2022/09/03 09:02:42;;;;;;;2.42;1.02;;;22.30;53.30;;;;;;5029069;28;20127;-48
2022/09/03 09:05:37;;;;;;;2.92;1.23;;;22.50;54.30;;;;;;5026764;28;20104;-47
2022/09/03 09:08:26;;;;;;;3.85;1.23;;;22.90;52.80;;;;;;5028252;28;20036;-47
2022/09/03 09:11:10;;;;;;;5.63;1.10;;;23.30;51.20;;;;;;5032222;28;20065;-49
2022/09/03 09:14:01;;;;;;;3.72;1.08;;;23.30;48.90;;;;;;5026664;28;20308;-50
2022/09/03 09:16:39;;;;;;;2.83;1.10;;;23.50;48.70;;;;;;5024814;28;20029;-47
2022/09/03 09:19:26;;;;;;;3.33;1.40;;;23.60;50.20;;;;;;5015598;28;20037;-48
2022/09/03 09:22:02;;;;;;;3.28;1.30;;;23.70;48.90;;;;;;5028681;28;20026;-48
2022/09/03 09:24:35;;;;;;;3.17;1.02;;;23.80;49.10;;;;;;5038980;28;20053;-49
2022/09/03 09:27:04;;;;;;;4.03;1.17;;;23.80;47.00;;;;;;5021507;28;20382;-48
2022/09/03 09:29:37;;;;;;;4.50;1.60;;;23.60;47.60;;;;;;5018304;28;20034;-47
2022/09/03 09:32:06;;;;;;;3.15;1.00;;;23.50;46.60;;;;;;5017768;28;20033;-48
2022/09/03 09:34:36;;;;;;;6.22;1.35;;;23.40;48.70;;;;;;5033356;28;20033;-47
2022/09/03 09:37:06;;;;;;;3.63;1.20;;;23.60;48.50;;;;;;5021233;28;20458;-48
2022/09/03 09:39:32;;;;;;;3.20;0.93;;;23.50;47.60;;;;;;5026358;28;20104;-48
2022/09/03 09:42:07;;;;;;;6.10;1.20;;;23.70;48.60;;;;;;5029556;28;20121;-48
2022/09/03 09:44:32;;;;;;;4.57;1.33;;;23.80;48.90;;;;;;5009522;28;20069;-48
2022/09/03 09:47:27;;;;;;;5.07;1.13;;;24.00;48.70;;;;;;5022009;28;20118;-51
2022/09/03 09:50:01;;;;;;;3.67;0.90;;;23.80;46.90;;;;;;5022741;28;20455;-48
2022/09/03 09:52:30;;;;;;;4.35;1.10;;;23.60;47.30;;;;;;5018901;28;20455;-48
2022/09/03 09:55:16;;;;;;;2.92;0.90;;;23.60;46.00;;;;;;5035309;28;20104;-47
2022/09/03 09:57:42;;;;;;;7.43;1.00;;;23.60;44.60;;;;;;5028014;28;20468;-48
2022/09/03 10:00:17;;;;;;;5.28;1.17;;;23.60;45.10;;;;;;5028575;28;20034;-51
2022/09/03 10:02:53;;;;;;;5.70;1.42;;;23.80;47.40;;;;;;5026143;28;20037;-50
2022/09/03 10:05:29;;;;;;;3.50;1.00;;;23.90;46.90;;;;;;5035650;28;20048;-50
2022/09/03 10:08:16;;;;;;;4.15;1.38;;;23.90;43.30;;;;;;5009537;28;20057;-49
2022/09/03 10:10:49;;;;;;;3.50;1.00;;;24.30;43.10;;;;;;5024354;28;20040;-48
2022/09/03 10:13:44;;;;;;;5.13;1.20;;;24.40;43.70;;;;;;5025441;28;20044;-49
2022/09/03 10:16:26;;;;;;;4.88;1.10;;;24.60;43.90;;;;;;5019874;28;20124;-47
2022/09/03 10:19:14;;;;;;;5.20;1.25;;;24.40;42.50;;;;;;5013193;28;20032;-47
2022/09/03 10:22:00;;;;;;;7.00;1.10;;;24.50;43.50;;;;;;5026436;28;20025;-48
2022/09/03 10:24:48;;;;;;;6.25;1.00;;;24.40;42.40;;;;;;5027831;28;20026;-48
2022/09/03 10:27:17;;;;;;;4.13;1.40;;;24.40;42.40;;;;;;5033658;28;20334;-48
2022/09/03 10:29:44;;;;;;;2.83;1.13;;;24.50;42.50;;;;;;5034399;28;20348;-48
2022/09/03 10:32:21;;;;;;;5.60;1.23;;;24.50;43.10;;;;;;5022578;28;20038;-47
2022/09/03 10:35:11;;;;;;;3.10;0.93;;;24.60;42.60;;;;;;5025397;28;20156;-48
2022/09/03 10:38:16;;;;;;;5.53;1.27;;;24.70;42.50;;;;;;5018872;28;20054;-48
2022/09/03 10:41:12;;;;;;;4.28;1.15;;;24.50;42.00;;;;;;5037584;28;20036;-47
2022/09/03 10:44:05;;;;;;;4.20;1.02;;;24.50;42.10;;;;;;5016283;28;20038;-47
2022/09/03 10:46:53;;;;;;;2.72;1.10;;;24.50;40.70;;;;;;5031772;28;20394;-48
2022/09/03 10:49:34;;;;;;;2.97;0.98;;;24.30;40.80;;;;;;5016142;28;20034;-49
2022/09/03 10:52:19;;;;;;;2.50;0.80;;;24.30;42.40;;;;;;5020063;28;20032;-48
2022/09/03 10:55:15;;;;;;;4.20;1.00;;;24.30;42.70;;;;;;5009816;28;20125;-47
2022/09/03 10:57:52;;;;;;;5.07;1.30;;;24.50;42.90;;;;;;5018209;28;20590;-48
2022/09/03 11:00:19;;;;;;;1.88;1.10;;;24.60;42.10;;;;;;5027872;28;20034;-48
2022/09/03 11:03:38;;;;;;;3.33;1.05;;;24.60;44.00;;;;;;5031670;28;20450;-48
2022/09/03 11:06:38;;;;;;;4.32;0.98;;;24.70;42.40;;;;;;5001696;28;20073;-47
2022/09/03 11:09:38;;;;;;;2.10;0.80;;;24.90;41.70;;;;;;5013551;28;20030;-48
2022/09/03 11:12:20;;;;;;;5.20;1.15;;;24.70;40.70;;;;;;5008797;28;20051;-49
2022/09/03 11:14:58;;;;;;;3.08;0.88;;;24.70;40.50;;;;;;5005994;28;20057;-47
2022/09/03 11:17:28;;;;;;;9.70;1.30;;;24.70;43.40;;;;;;5007626;28;20067;-49
2022/09/03 11:20:10;;;;;;;3.03;1.15;;;24.60;39.70;;;;;;5005714;28;20045;-49
2022/09/03 11:22:37;;;;;;;3.20;0.90;;;24.60;39.00;;;;;;4992205;28;20022;-47
2022/09/03 11:25:06;;;;;;;3.33;0.88;;;24.40;38.90;;;;;;5006808;28;20065;-50
2022/09/03 11:27:40;;;;;;;3.05;0.80;;;24.30;39.30;;;;;;5006644;28;20038;-48
2022/09/03 11:30:25;;;;;;;4.07;1.25;;;24.30;39.10;;;;;;4998909;28;20030;-48
2022/09/03 11:32:58;;;;;;;4.35;0.88;;;24.20;39.10;;;;;;4997143;28;20037;-48
2022/09/03 11:35:32;;;;;;;2.70;0.80;;;24.20;39.70;;;;;;5011540;28;20033;-51
2022/09/03 11:37:59;;;;;;;2.47;1.10;;;24.10;39.40;;;;;;4984552;28;20501;-47
2022/09/03 11:40:34;;;;;;;6.50;1.55;;;24.30;41.00;;;;;;5011236;28;20045;-50
2022/09/03 11:43:23;;;;;;;3.67;0.85;;;24.30;39.10;;;;;;5026508;28;20747;-48
2022/09/03 11:46:03;;;;;;;2.72;0.70;;;24.20;40.00;;;;;;5019877;28;20060;-47
2022/09/03 11:48:39;;;;;;;3.88;1.25;;;24.20;40.40;;;;;;5030950;28;20033;-48
2022/09/03 11:51:30;;;;;;;1.90;0.90;;;24.40;41.80;;;;;;5032288;28;20395;-48
2022/09/03 11:54:24;;;;;;;2.75;1.02;;;24.50;39.60;;;;;;5026067;28;20063;-47
2022/09/03 11:57:02;;;;;;;1.88;0.88;;;24.50;39.90;;;;;;5026546;28;20182;-48
2022/09/03 11:59:29;;;;;;;3.90;0.90;;;24.40;39.30;;;;;;5027388;28;20022;-47
2022/09/03 12:02:04;;;;;;;7.25;1.20;;;24.40;38.90;;;;;;5025938;28;20060;-50
2022/09/03 12:04:36;;;;;;;1.63;0.80;;;24.50;39.10;;;;;;5017940;28;20356;-48
2022/09/03 12:07:24;;;;;;;3.50;1.08;;;24.70;38.90;;;;;;5019424;28;20030;-47
2022/09/03 12:10:02;;;;;;;3.47;1.10;;;24.80;38.00;;;;;;5024031;28;20076;-48
2022/09/03 12:13:05;;;;;;;6.43;1.20;;;24.70;39.30;;;;;;5026666;28;20061;-47
2022/09/03 12:15:45;;;;;;;3.97;1.10;;;24.70;38.90;;;;;;5020139;28;20041;-47
2022/09/03 12:18:24;;;;;;;1.55;0.93;;;24.40;37.70;;;;;;5009907;28;20069;-48
2022/09/03 12:20:59;;;;;;;12.60;1.25;;;24.10;39.70;;;;;;5016573;28;20056;-52
2022/09/03 12:23:31;;;;;;;3.85;1.10;;;24.00;38.60;;;;;;5027826;28;20046;-48
2022/09/03 12:26:06;;;;;;;2.30;0.90;;;23.90;39.00;;;;;;5017003;28;20328;-49
2022/09/03 12:28:37;;;;;;;2.30;1.20;;;23.90;39.00;;;;;;5025563;28;20036;-47
2022/09/03 12:31:21;;;;;;;3.88;1.00;;;23.80;38.50;;;;;;5017828;28;20026;-49
2022/09/03 12:33:54;;;;;;;3.55;0.90;;;23.80;39.30;;;;;;5024290;28;20112;-49
2022/09/03 12:36:23;;;;;;;6.13;1.13;;;23.80;38.80;;;;;;5013953;28;20125;-47
2022/09/03 12:38:49;;;;;;;1.77;0.90;;;23.90;39.00;;;;;;5014648;28;20034;-47
2022/09/03 12:41:30;;;;;;;2.75;1.17;;;23.90;40.30;;;;;;5031393;28;20117;-47
2022/09/03 12:43:58;;;;;;;3.85;0.98;;;24.00;42.20;;;;;;5029451;28;20056;-48
2022/09/03 12:46:27;;;;;;;2.28;1.10;;;24.10;41.70;;;;;;5019443;28;20382;-47
2022/09/03 12:49:02;;;;;;;7.05;1.10;;;24.00;40.70;;;;;;5024976;28;20040;-49
2022/09/03 12:51:35;;;;;;;9.20;1.35;;;23.90;40.10;;;;;;5031098;28;20024;-47
2022/09/03 12:54:03;;;;;;;3.20;1.08;;;23.90;41.80;;;;;;5022511;28;20060;-47
2022/09/03 12:56:33;;;;;;;4.45;0.60;;;23.90;42.10;;;;;;5028254;28;20041;-49
2022/09/03 12:59:05;;;;;;;3.22;0.73;;;23.90;40.40;;;;;;5025901;28;20040;-46
2022/09/03 13:01:35;;;;;;;5.20;1.10;;;24.10;42.50;;;;;;5030582;28;20032;-47
2022/09/03 13:04:08;;;;;;;2.13;0.80;;;24.10;41.50;;;;;;5011696;28;20026;-47
2022/09/03 13:06:45;;;;;;;3.17;1.08;;;23.90;41.30;;;;;;5010118;28;20041;-49
2022/09/03 13:09:13;;;;;;;5.55;1.05;;;23.80;41.20;;;;;;5016672;28;20074;-47
2022/09/03 13:11:39;;;;;;;4.65;0.95;;;23.70;40.90;;;;;;5027634;28;20038;-49
2022/09/03 13:14:09;;;;;;;3.33;0.65;;;23.60;40.20;;;;;;5027541;28;20067;-47
2022/09/03 13:16:44;;;;;;;4.70;1.08;;;23.60;42.10;;;;;;5022482;28;20458;-48
2022/09/03 13:19:34;;;;;;;1.88;0.80;;;23.70;40.50;;;;;;5014175;28;20037;-47
2022/09/03 13:22:19;;;;;;;3.45;1.25;;;23.70;42.40;;;;;;5012231;28;20044;-48
2022/09/03 13:24:51;;;;;;;1.90;0.90;;;23.80;41.70;;;;;;5017357;28;20447;-47
2022/09/03 13:27:30;;;;;;;4.13;0.93;;;23.70;40.00;;;;;;5024700;28;20036;-46